Terminal Aerodrome Forecast
Issued by NWS Cleveland, OH

Home | Current Version | Previous Version | Graphics & Text | Print | Product List | Glossary Off
Versions: 1 2 3 4 5 6 7 8 9 10 11 12 13 14 15 16 17 18 19 20 21 22 23 24 25

000
FTUS41 KCLE 010200 AAA
TAFMFD
TAF AMD
KMFD 010241Z 0103/0124 33005KT P6SM SCT015 OVC035
     FM010400 35003KT P6SM SCT035
     FM010600 03003KT 5SM BR SCT006
      TEMPO 0107/0109 2SM BR BKN005
     FM010900 03002KT 1/2SM FG VV002
     FM011400 05003KT 4SM BR OVC008
     FM011600 07004KT P6SM BKN018=

USA.gov is the U.S. government's official web portal to all federal, state and local government web resources and services.